Time;durP1;ratioP1;P1;durP2;ratioP2;P2;SDS_P1;SDS_P2;PMS_P1;PMS_P2;Temp;Humidity;BMP_temperature;BMP_pressure;BME280_temperature;BME280_humidity;BME280_pressure;Samples;Min_cycle;Max_cycle;Signal;HPM_P1;HPM_P2
2022/12/07 00:01:30;;;;;;;19.13;14.43;;;5.30;99.90;;;;;;5017254;28;20886;-74
2022/12/07 00:04:05;;;;;;;13.97;12.50;;;5.30;99.90;;;;;;5016952;28;20284;-75
2022/12/07 00:06:40;;;;;;;17.47;14.63;;;5.20;99.90;;;;;;5016518;28;20438;-76
2022/12/07 00:09:07;;;;;;;15.17;13.57;;;5.30;99.90;;;;;;5016701;28;21280;-74
2022/12/07 00:11:33;;;;;;;16.93;13.97;;;5.30;99.90;;;;;;5016930;28;20514;-74
2022/12/07 00:14:02;;;;;;;19.23;15.23;;;5.30;99.90;;;;;;5016745;28;20958;-74
2022/12/07 00:16:31;;;;;;;18.67;14.63;;;5.30;99.90;;;;;;5016547;28;20187;-78
2022/12/07 00:18:57;;;;;;;20.23;15.13;;;5.30;99.90;;;;;;5017341;28;20424;-75
2022/12/07 00:21:26;;;;;;;18.43;15.60;;;5.20;99.90;;;;;;5020796;28;20867;-73
2022/12/07 00:23:53;;;;;;;18.50;15.50;;;5.10;99.90;;;;;;5017030;28;20496;-77
2022/12/07 00:26:30;;;;;;;20.90;16.27;;;-5.40;99.90;;;;;;5017924;28;20459;-75
2022/12/07 00:29:00;;;;;;;21.50;15.80;;;-5.60;99.90;;;;;;5023220;28;20510;-75
2022/12/07 00:31:29;;;;;;;22.80;16.77;;;-5.50;99.90;;;;;;5017095;28;20437;-75
2022/12/07 00:33:55;;;;;;;18.37;16.03;;;-3.80;99.90;;;;;;5023901;28;20449;-75
2022/12/07 00:36:23;;;;;;;20.63;17.00;;;-5.90;99.90;;;;;;5021573;28;20904;-79
2022/12/07 00:38:49;;;;;;;23.87;17.07;;;-6.50;99.90;;;;;;5016623;28;22189;-74
2022/12/07 00:41:24;;;;;;;23.83;17.67;;;-4.60;99.90;;;;;;5017678;28;20425;-74
2022/12/07 00:43:51;;;;;;;26.37;17.73;;;-5.70;99.90;;;;;;5022907;28;20185;-73
2022/12/07 00:46:19;;;;;;;21.93;17.73;;;-5.40;99.90;;;;;;5020272;28;20435;-73
2022/12/07 00:48:45;;;;;;;20.10;17.17;;;-5.50;99.90;;;;;;5020602;28;20427;-74
2022/12/07 00:51:12;;;;;;;24.67;16.73;;;-5.10;99.90;;;;;;5022984;28;20699;-76
2022/12/07 00:53:39;;;;;;;19.47;15.90;;;-4.20;99.90;;;;;;5016705;28;20500;-75
2022/12/07 00:56:11;;;;;;;19.50;17.07;;;-4.00;99.90;;;;;;5023194;28;20427;-74
2022/12/07 00:58:37;;;;;;;22.40;17.20;;;-6.00;99.90;;;;;;5017755;28;20434;-78
2022/12/07 01:01:04;;;;;;;21.47;16.40;;;-6.00;99.90;;;;;;5018172;28;20887;-74
2022/12/07 01:03:30;;;;;;;17.77;15.57;;;-6.50;99.90;;;;;;5018848;28;20203;-74
2022/12/07 01:05:56;;;;;;;21.43;16.63;;;-4.30;99.90;;;;;;5017632;28;20439;-75
2022/12/07 01:08:27;;;;;;;24.43;17.33;;;-4.20;99.90;;;;;;5056116;28;20196;-74
2022/12/07 01:11:06;;;;;;;26.00;15.00;;;-5.60;99.90;;;;;;5018084;28;20430;-80
2022/12/07 01:13:33;;;;;;;19.60;16.47;;;-5.80;99.90;;;;;;5016240;28;20464;-75
2022/12/07 01:16:01;;;;;;;23.77;17.30;;;-4.00;99.90;;;;;;5021665;28;20438;-78
2022/12/07 01:18:31;;;;;;;21.73;15.40;;;-5.30;99.90;;;;;;5015424;28;20481;-77
2022/12/07 01:21:18;;;;;;;20.80;15.47;;;-5.30;99.90;;;;;;5016232;28;20440;-76
2022/12/07 01:23:44;;;;;;;21.13;16.00;;;-5.40;99.90;;;;;;5016257;28;20454;-80
2022/12/07 01:26:11;;;;;;;20.60;15.23;;;-5.30;99.90;;;;;;5016899;28;20433;-74
2022/12/07 01:28:37;;;;;;;22.30;15.90;;;-5.20;99.90;;;;;;5015648;28;20192;-74
2022/12/07 01:31:06;;;;;;;18.43;15.90;;;-5.30;99.90;;;;;;5015366;28;20501;-74
2022/12/07 01:33:36;;;;;;;19.07;16.20;;;-4.60;99.90;;;;;;5015245;28;20233;-75
2022/12/07 01:36:07;;;;;;;23.47;16.87;;;-4.30;99.90;;;;;;5015022;28;20434;-74
2022/12/07 01:38:34;;;;;;;18.23;15.00;;;-5.10;99.90;;;;;;5015464;28;20431;-74
2022/12/07 01:41:01;;;;;;;17.00;15.13;;;-5.20;99.90;;;;;;5019334;28;21112;-78
2022/12/07 01:43:30;;;;;;;21.27;16.37;;;-5.40;99.90;;;;;;5020256;28;20538;-74
2022/12/07 01:45:56;;;;;;;20.37;16.10;;;-5.10;99.90;;;;;;5015520;28;20427;-74
2022/12/07 01:48:33;;;;;;;19.40;14.57;;;-5.00;99.90;;;;;;5015440;28;20422;-74
2022/12/07 01:51:03;;;;;;;19.90;15.63;;;-5.40;99.90;;;;;;5015325;28;20431;-75
2022/12/07 01:53:31;;;;;;;23.77;15.13;;;-5.30;99.90;;;;;;5015272;28;20462;-81
2022/12/07 01:55:58;;;;;;;22.53;15.07;;;-5.50;99.90;;;;;;5015268;28;20430;-74
2022/12/07 01:58:24;;;;;;;19.30;14.37;;;-5.40;99.90;;;;;;5016646;28;20901;-74
2022/12/07 02:00:50;;;;;;;23.20;15.67;;;-6.00;99.90;;;;;;5019335;28;20437;-78
2022/12/07 02:03:18;;;;;;;23.73;16.40;;;-6.20;99.90;;;;;;5019089;28;20437;-75
2022/12/07 02:05:46;;;;;;;19.20;13.70;;;-6.20;99.90;;;;;;5019001;28;20224;-72
2022/12/07 02:08:13;;;;;;;18.83;13.83;;;-5.90;99.90;;;;;;5019067;28;20434;-74
2022/12/07 02:10:39;;;;;;;24.53;14.63;;;-5.80;99.90;;;;;;5032065;28;20431;-72
2022/12/07 02:13:12;;;;;;;18.50;15.23;;;-5.80;99.90;;;;;;5018519;28;20980;-76
2022/12/07 02:16:00;;;;;;;23.63;16.17;;;-5.50;99.90;;;;;;5018818;28;20431;-78
2022/12/07 02:18:37;;;;;;;24.20;13.37;;;-5.80;99.90;;;;;;5018564;28;20422;-73
2022/12/07 02:21:31;;;;;;;18.20;14.23;;;-5.60;99.90;;;;;;5018625;28;20434;-75
2022/12/07 02:24:22;;;;;;;20.07;16.10;;;-3.20;99.90;;;;;;5026802;28;20437;-73
2022/12/07 02:26:55;;;;;;;19.87;15.43;;;-5.80;99.90;;;;;;5021659;28;20439;-75
2022/12/07 02:29:43;;;;;;;19.50;14.83;;;-6.10;99.90;;;;;;5034076;28;20517;-74
2022/12/07 02:32:48;;;;;;;18.40;14.70;;;-6.30;99.90;;;;;;5022407;28;20451;-73
2022/12/07 02:35:57;;;;;;;17.80;13.90;;;-5.90;99.90;;;;;;5023310;28;20418;-72
2022/12/07 02:38:39;;;;;;;19.27;13.73;;;-5.50;99.90;;;;;;5020292;28;20435;-79
2022/12/07 02:41:12;;;;;;;20.37;14.20;;;-5.40;99.90;;;;;;5019395;28;20428;-75
2022/12/07 02:44:07;;;;;;;16.20;13.47;;;-4.80;99.90;;;;;;5026028;28;20817;-74
2022/12/07 02:46:38;;;;;;;18.70;15.90;;;-5.80;99.90;;;;;;5019311;28;20455;-73
2022/12/07 02:49:04;;;;;;;17.00;13.63;;;-5.00;99.90;;;;;;5018865;28;20443;-75
2022/12/07 02:51:31;;;;;;;16.63;13.83;;;-6.00;99.90;;;;;;5019153;28;20569;-74
2022/12/07 02:53:57;;;;;;;17.63;13.07;;;-6.20;99.90;;;;;;5020772;28;20468;-91
2022/12/07 02:56:46;;;;;;;15.43;12.67;;;-5.80;99.90;;;;;;5021349;28;20753;-89
2022/12/07 02:59:47;;;;;;;19.97;12.47;;;-5.60;99.90;;;;;;5028267;28;20612;-75
2022/12/07 03:02:36;;;;;;;14.93;11.50;;;-6.00;99.90;;;;;;5031066;28;20434;-89
2022/12/07 03:05:36;;;;;;;20.30;12.43;;;-5.60;99.90;;;;;;5029814;28;20443;-90
2022/12/07 03:08:47;;;;;;;13.30;11.53;;;-5.50;99.90;;;;;;5029141;28;20435;-92
2022/12/07 03:11:18;;;;;;;16.40;12.47;;;-5.60;99.90;;;;;;5021800;28;20455;-91
2022/12/07 03:13:53;;;;;;;18.27;13.47;;;-5.40;99.90;;;;;;5022135;28;20458;-92
2022/12/07 03:16:28;;;;;;;14.67;12.43;;;-6.70;99.90;;;;;;5030648;28;20513;-91
2022/12/07 03:18:59;;;;;;;16.93;12.63;;;-7.10;99.90;;;;;;5031994;28;20417;-92
2022/12/07 03:21:33;;;;;;;17.00;13.27;;;-6.40;99.90;;;;;;5025211;28;20431;-89
2022/12/07 03:24:04;;;;;;;14.57;12.73;;;-7.10;99.90;;;;;;5042825;28;20435;-90
2022/12/07 03:26:41;;;;;;;13.53;12.13;;;-5.30;99.90;;;;;;5033805;28;20410;-92
2022/12/07 03:29:22;;;;;;;13.53;12.00;;;-6.20;99.90;;;;;;5037224;28;20442;-91
2022/12/07 03:31:58;;;;;;;15.43;11.93;;;-6.30;99.90;;;;;;5027203;28;20566;-91
2022/12/07 03:34:32;;;;;;;15.07;13.07;;;-6.20;99.90;;;;;;5033995;28;20874;-75
2022/12/07 03:37:09;;;;;;;14.97;12.73;;;-6.20;99.90;;;;;;5018531;28;20459;-77
2022/12/07 03:40:10;;;;;;;15.47;12.50;;;-6.20;99.90;;;;;;5017978;28;20438;-73
2022/12/07 03:42:36;;;;;;;15.70;13.47;;;-5.70;99.90;;;;;;5017947;28;20417;-73
2022/12/07 03:45:03;;;;;;;14.90;12.40;;;-5.90;99.90;;;;;;5017009;28;20415;-72
2022/12/07 03:47:55;;;;;;;16.10;12.93;;;-6.00;99.90;;;;;;5017584;28;20204;-75
2022/12/07 03:50:36;;;;;;;14.33;11.90;;;-6.00;99.90;;;;;;5017082;28;20457;-73
2022/12/07 03:53:12;;;;;;;15.70;11.87;;;-6.30;99.90;;;;;;5016998;28;20470;-83
2022/12/07 03:55:42;;;;;;;16.17;12.53;;;-6.10;99.90;;;;;;5021997;28;20465;-79
2022/12/07 03:58:14;;;;;;;14.80;11.60;;;-4.90;99.90;;;;;;5023538;28;20426;-87
2022/12/07 04:00:42;;;;;;;11.90;10.70;;;-5.80;99.90;;;;;;5032949;28;20413;-87
2022/12/07 04:03:08;;;;;;;14.53;12.67;;;-6.00;99.90;;;;;;5019942;28;20426;-90
2022/12/07 04:05:34;;;;;;;14.67;10.97;;;-5.70;99.90;;;;;;5018286;28;20429;-91
2022/12/07 04:08:00;;;;;;;18.60;12.03;;;-5.50;99.90;;;;;;5019263;28;20431;-76
2022/12/07 04:10:26;;;;;;;11.07;9.97;;;-5.60;99.90;;;;;;5016871;28;20857;-75
2022/12/07 04:12:51;;;;;;;12.13;10.77;;;-5.10;99.90;;;;;;5017083;28;20216;-74
2022/12/07 04:15:17;;;;;;;12.80;9.90;;;-5.50;99.90;;;;;;5022941;28;20181;-74
2022/12/07 04:17:43;;;;;;;11.63;10.60;;;-6.60;99.90;;;;;;5031258;28;20178;-76
2022/12/07 04:20:09;;;;;;;14.20;10.80;;;-6.30;99.90;;;;;;5023895;28;20577;-75
2022/12/07 04:22:35;;;;;;;14.23;10.40;;;-6.30;99.90;;;;;;5016237;28;20268;-75
2022/12/07 04:25:01;;;;;;;14.83;13.13;;;-6.30;99.90;;;;;;5016536;28;20522;-75
2022/12/07 04:27:27;;;;;;;21.60;11.97;;;-5.60;99.90;;;;;;5016823;28;20205;-74
2022/12/07 04:29:52;;;;;;;15.83;12.70;;;-5.90;99.90;;;;;;5016797;28;20189;-76
2022/12/07 04:32:18;;;;;;;16.37;12.93;;;-4.80;99.90;;;;;;5016050;28;20204;-74
2022/12/07 04:34:44;;;;;;;15.40;12.60;;;-5.90;99.90;;;;;;5017211;28;20224;-74
2022/12/07 04:37:10;;;;;;;17.03;13.37;;;-5.70;99.90;;;;;;5016232;28;20177;-75
2022/12/07 04:39:36;;;;;;;15.00;12.87;;;-5.30;99.90;;;;;;5017452;28;20256;-79
2022/12/07 04:42:02;;;;;;;12.97;11.63;;;-4.80;99.90;;;;;;5016579;28;20186;-80
2022/12/07 04:44:29;;;;;;;17.93;12.37;;;-5.00;99.90;;;;;;5019933;28;20501;-75
2022/12/07 04:46:56;;;;;;;13.73;12.07;;;-5.10;99.90;;;;;;5017226;28;20181;-75
2022/12/07 04:49:24;;;;;;;15.17;12.80;;;-4.70;99.90;;;;;;5016857;28;20745;-83
2022/12/07 04:51:50;;;;;;;20.10;14.77;;;-3.40;99.90;;;;;;5016661;28;20505;-77
2022/12/07 04:54:16;;;;;;;17.83;13.50;;;-4.40;99.90;;;;;;5016946;28;20451;-80
2022/12/07 04:56:42;;;;;;;19.63;14.57;;;-5.30;99.90;;;;;;5017350;28;20488;-89
2022/12/07 04:59:10;;;;;;;19.33;13.90;;;-5.20;99.90;;;;;;5022715;28;20934;-88
2022/12/07 05:01:36;;;;;;;18.10;14.43;;;-5.70;99.90;;;;;;5021136;28;20179;-83
2022/12/07 05:04:02;;;;;;;20.80;15.23;;;-5.50;99.90;;;;;;5024964;28;20447;-89
2022/12/07 05:06:28;;;;;;;16.57;13.13;;;-5.80;99.90;;;;;;5018388;28;20185;-89
2022/12/07 05:08:54;;;;;;;16.17;14.00;;;-5.50;99.90;;;;;;5023671;28;20779;-88
2022/12/07 05:11:38;;;;;;;20.03;14.33;;;-5.60;99.90;;;;;;5022940;28;20635;-86
2022/12/07 05:14:19;;;;;;;14.20;12.70;;;-5.10;99.90;;;;;;5027712;28;20231;-88
2022/12/07 05:16:47;;;;;;;15.27;13.63;;;-5.10;99.90;;;;;;5017767;28;20430;-89
2022/12/07 05:19:13;;;;;;;18.87;15.00;;;-4.30;99.90;;;;;;5017103;28;20461;-85
2022/12/07 05:21:39;;;;;;;19.17;13.57;;;-5.10;99.90;;;;;;5024625;28;20429;-88
2022/12/07 05:24:06;;;;;;;14.57;12.63;;;-5.50;99.90;;;;;;5019991;28;20569;-85
2022/12/07 05:26:32;;;;;;;20.57;13.63;;;-5.10;99.90;;;;;;5015942;28;20181;-87
2022/12/07 05:28:58;;;;;;;15.00;13.17;;;-5.30;99.90;;;;;;5023878;28;20430;-87
2022/12/07 05:31:26;;;;;;;20.10;12.60;;;-5.20;99.90;;;;;;5021374;28;20658;-83
2022/12/07 05:33:52;;;;;;;16.33;12.50;;;-4.40;99.90;;;;;;5020027;28;20465;-88
2022/12/07 05:36:18;;;;;;;20.17;14.07;;;-5.10;99.90;;;;;;5017498;28;20509;-83
2022/12/07 05:38:44;;;;;;;17.13;11.97;;;-4.10;99.90;;;;;;5017092;28;20866;-77
2022/12/07 05:42:11;;;;;;;15.10;12.77;;;-4.50;99.90;;;;;;5024191;28;20186;-83
2022/12/07 05:43:59;;;;;;;17.13;12.27;;;-4.70;99.90;;;;;;5021631;28;20189;-76
2022/12/07 05:46:25;;;;;;;13.73;11.50;;;-5.50;99.90;;;;;;5018438;28;20434;-82
2022/12/07 05:48:51;;;;;;;15.47;12.67;;;-5.70;99.90;;;;;;5016177;28;20457;-79
2022/12/07 05:51:17;;;;;;;17.17;12.67;;;-5.60;99.90;;;;;;5021494;28;20511;-87
2022/12/07 05:53:44;;;;;;;15.60;12.43;;;-4.90;99.90;;;;;;5015351;28;20248;-76
2022/12/07 05:56:10;;;;;;;17.80;13.13;;;-6.30;99.90;;;;;;5014974;28;20185;-74
2022/12/07 06:01:20;;;;;;;15.53;11.87;;;-5.70;99.90;;;;;;5021485;28;20611;-77
2022/12/07 06:03:45;;;;;;;15.80;12.27;;;-5.80;99.90;;;;;;5028556;28;20441;-75
2022/12/07 06:06:11;;;;;;;14.90;12.87;;;-5.70;99.90;;;;;;5019695;28;20312;-74
2022/12/07 06:08:37;;;;;;;14.83;13.03;;;-5.20;99.90;;;;;;5020387;28;20204;-82
2022/12/07 06:13:46;;;;;;;17.67;12.53;;;-5.30;99.90;;;;;;5019162;28;20212;-76
2022/12/07 06:16:12;;;;;;;15.00;13.40;;;-5.40;99.90;;;;;;5014723;28;20457;-74
2022/12/07 06:18:38;;;;;;;19.33;12.77;;;-5.30;99.90;;;;;;5021867;28;20184;-78
2022/12/07 06:21:04;;;;;;;22.10;15.20;;;-5.10;99.90;;;;;;5027162;28;20188;-80
2022/12/07 06:23:29;;;;;;;17.43;12.20;;;-5.00;99.90;;;;;;5016205;28;20271;-78
2022/12/07 06:25:55;;;;;;;18.80;13.60;;;-5.10;99.90;;;;;;5022380;28;20209;-86
2022/12/07 06:28:21;;;;;;;19.93;12.07;;;-4.90;99.90;;;;;;5019658;28;20193;-86
2022/12/07 06:30:47;;;;;;;14.27;12.20;;;-5.20;99.90;;;;;;5022832;28;20174;-86
2022/12/07 06:33:12;;;;;;;15.30;12.37;;;-5.40;99.90;;;;;;5017050;28;20208;-85
2022/12/07 06:35:38;;;;;;;16.60;11.93;;;-5.50;99.90;;;;;;5021888;28;20177;-88
2022/12/07 06:38:04;;;;;;;17.80;12.00;;;-5.20;99.90;;;;;;5018780;28;20203;-85
2022/12/07 06:40:29;;;;;;;13.57;11.13;;;-4.80;99.90;;;;;;5016818;28;20201;-83
2022/12/07 06:42:55;;;;;;;18.33;11.43;;;-4.90;99.90;;;;;;5023457;28;20617;-80
2022/12/07 06:45:21;;;;;;;13.33;11.80;;;-5.00;99.90;;;;;;5018017;28;20188;-77
2022/12/07 06:47:46;;;;;;;14.30;11.53;;;-4.80;99.90;;;;;;5024895;28;20177;-78
2022/12/07 06:50:12;;;;;;;15.77;12.27;;;-5.20;99.90;;;;;;5027668;28;20186;-84
2022/12/07 06:52:38;;;;;;;14.13;12.57;;;-3.60;99.90;;;;;;5021634;28;20609;-84
2022/12/07 06:55:04;;;;;;;15.30;12.30;;;-5.00;99.90;;;;;;5023722;28;20205;-84
2022/12/07 06:57:29;;;;;;;20.63;12.13;;;-5.20;99.90;;;;;;5024603;28;20480;-83
2022/12/07 06:59:55;;;;;;;15.20;13.27;;;-4.60;99.90;;;;;;5027427;28;20521;-84
2022/12/07 07:02:21;;;;;;;13.77;12.30;;;-4.90;99.90;;;;;;5024209;28;20204;-82
2022/12/07 07:04:46;;;;;;;13.90;12.50;;;-5.10;99.90;;;;;;5019053;28;20515;-81
2022/12/07 07:07:12;;;;;;;20.90;13.00;;;-4.90;99.90;;;;;;5018055;28;20195;-85
2022/12/07 07:09:38;;;;;;;19.10;12.50;;;-5.50;99.90;;;;;;5019042;28;20223;-74
2022/12/07 07:12:04;;;;;;;15.30;12.43;;;-5.50;99.90;;;;;;5017841;28;20235;-79
2022/12/07 07:14:29;;;;;;;13.77;12.07;;;-5.50;99.90;;;;;;5016557;28;20208;-77
2022/12/07 07:16:55;;;;;;;15.80;12.20;;;-5.70;99.90;;;;;;5017961;28;20179;-81
2022/12/07 07:19:21;;;;;;;11.40;10.20;;;-4.40;99.90;;;;;;5018889;28;20221;-77
2022/12/07 07:21:47;;;;;;;13.73;12.33;;;-5.50;99.90;;;;;;5017916;28;20577;-77
2022/12/07 07:24:12;;;;;;;16.30;12.10;;;-3.60;99.90;;;;;;5017833;28;20190;-74
2022/12/07 07:26:38;;;;;;;13.13;11.77;;;-4.60;99.90;;;;;;5018541;28;20197;-74
2022/12/07 07:29:04;;;;;;;14.93;11.43;;;-5.80;99.90;;;;;;5017201;28;20272;-71
2022/12/07 07:31:30;;;;;;;11.67;10.50;;;-6.10;99.90;;;;;;5020674;28;20177;-72
2022/12/07 07:33:56;;;;;;;13.23;11.10;;;-6.20;99.90;;;;;;5021984;28;20224;-75
2022/12/07 07:36:21;;;;;;;15.10;11.43;;;-6.10;99.90;;;;;;5049319;28;20431;-72
2022/12/07 07:38:47;;;;;;;18.00;11.67;;;-6.00;99.90;;;;;;5017512;28;20189;-72
2022/12/07 07:41:13;;;;;;;14.70;12.57;;;-5.80;99.90;;;;;;5017843;28;20186;-73
2022/12/07 07:43:38;;;;;;;15.40;11.73;;;-5.60;99.90;;;;;;5021376;28;20187;-73
2022/12/07 07:46:04;;;;;;;13.73;11.30;;;-5.50;99.90;;;;;;5017034;28;20185;-71
2022/12/07 07:48:30;;;;;;;15.40;11.60;;;-5.60;99.90;;;;;;5017532;28;20184;-73
2022/12/07 07:50:56;;;;;;;14.27;11.63;;;-5.40;99.90;;;;;;5017225;28;20192;-73
2022/12/07 07:53:21;;;;;;;15.50;11.50;;;-5.60;99.90;;;;;;5017108;28;20212;-73
2022/12/07 07:55:53;;;;;;;16.17;12.60;;;-5.60;99.90;;;;;;5016363;28;20201;-72
2022/12/07 07:58:19;;;;;;;15.77;11.50;;;-5.20;99.90;;;;;;5018461;28;20192;-73
2022/12/07 08:00:45;;;;;;;17.83;11.00;;;-5.30;99.90;;;;;;5018511;28;20431;-72
2022/12/07 08:03:10;;;;;;;15.30;11.00;;;-5.70;99.90;;;;;;5017174;28;20488;-74
2022/12/07 08:05:38;;;;;;;15.27;11.93;;;-5.60;99.90;;;;;;5016737;28;20309;-72
2022/12/07 08:08:04;;;;;;;16.17;12.70;;;-5.40;99.90;;;;;;5019492;28;20190;-72
2022/12/07 08:10:31;;;;;;;12.73;9.87;;;-5.40;99.90;;;;;;5017179;28;20438;-75
2022/12/07 08:13:10;;;;;;;15.20;11.03;;;-5.40;99.90;;;;;;5023256;28;20624;-77
2022/12/07 08:15:38;;;;;;;20.17;10.87;;;-5.10;99.90;;;;;;5017519;28;20446;-77
2022/12/07 08:18:04;;;;;;;15.93;12.33;;;-5.20;99.90;;;;;;5016520;28;20707;-73
2022/12/07 08:20:31;;;;;;;14.03;11.97;;;-5.60;99.90;;;;;;5016663;28;20438;-76
2022/12/07 08:22:57;;;;;;;17.10;12.40;;;-4.70;99.90;;;;;;5031681;28;20459;-78
2022/12/07 08:25:22;;;;;;;17.30;11.93;;;-5.70;99.90;;;;;;5017452;28;20479;-80
2022/12/07 08:27:49;;;;;;;15.03;12.80;;;-6.20;99.90;;;;;;5017766;28;20949;-83
2022/12/07 08:30:15;;;;;;;15.33;12.70;;;-6.60;99.90;;;;;;5018083;28;20239;-77
2022/12/07 08:32:41;;;;;;;17.80;12.30;;;-6.50;99.90;;;;;;5034257;28;20471;-82
2022/12/07 08:35:07;;;;;;;21.33;13.17;;;-6.40;99.90;;;;;;5045104;28;20502;-75
2022/12/07 08:37:33;;;;;;;16.73;13.33;;;-6.00;99.90;;;;;;5031566;28;20438;-77
2022/12/07 08:39:59;;;;;;;16.03;12.40;;;-6.80;99.90;;;;;;5032470;28;20453;-77
2022/12/07 08:42:29;;;;;;;17.80;11.77;;;-7.20;99.90;;;;;;5035305;28;20487;-87
2022/12/07 08:44:56;;;;;;;18.03;13.27;;;-6.60;99.90;;;;;;5032638;28;20185;-83
2022/12/07 08:47:24;;;;;;;18.10;12.83;;;-6.40;99.90;;;;;;5032225;28;20534;-74
2022/12/07 08:49:51;;;;;;;19.70;12.27;;;-5.80;99.90;;;;;;5023051;28;20429;-77
2022/12/07 08:52:17;;;;;;;17.80;12.47;;;-5.70;99.90;;;;;;5021968;28;20917;-73
2022/12/07 08:54:44;;;;;;;19.80;12.33;;;-5.90;99.90;;;;;;5027539;28;20442;-74
2022/12/07 08:57:11;;;;;;;16.67;11.57;;;-5.60;99.90;;;;;;5048227;28;20176;-73
2022/12/07 08:59:37;;;;;;;19.87;11.33;;;-6.40;99.90;;;;;;5018582;28;20436;-75
2022/12/07 09:02:05;;;;;;;14.63;12.13;;;-6.00;99.90;;;;;;5021950;28;20433;-73
2022/12/07 09:04:31;;;;;;;14.20;11.80;;;-6.40;99.90;;;;;;5016637;28;20540;-74
2022/12/07 09:06:57;;;;;;;15.73;11.50;;;-6.80;99.90;;;;;;5015692;28;20531;-75
2022/12/07 09:09:23;;;;;;;14.63;11.63;;;-8.00;99.90;;;;;;5021278;28;20517;-74
2022/12/07 09:11:48;;;;;;;14.27;11.33;;;-8.10;99.90;;;;;;5019956;28;20435;-75
2022/12/07 09:14:14;;;;;;;16.83;10.77;;;-8.10;99.90;;;;;;5016327;28;20189;-77
2022/12/07 09:16:40;;;;;;;15.70;10.77;;;-8.10;99.90;;;;;;5015663;28;20180;-75
2022/12/07 09:19:07;;;;;;;15.07;11.17;;;-7.70;99.90;;;;;;5019148;28;20223;-81
2022/12/07 09:21:33;;;;;;;12.77;11.37;;;-8.50;99.90;;;;;;5016505;28;20534;-73
2022/12/07 09:23:59;;;;;;;15.50;10.90;;;-8.10;99.90;;;;;;5026805;28;20562;-73
2022/12/07 09:26:25;;;;;;;14.77;11.00;;;-8.20;99.90;;;;;;5030378;28;20189;-82
2022/12/07 09:28:50;;;;;;;18.20;12.17;;;-8.10;99.90;;;;;;5025186;28;20245;-82
2022/12/07 09:31:16;;;;;;;11.90;9.50;;;-10.90;99.90;;;;;;5020580;28;20197;-79
2022/12/07 09:33:42;;;;;;;14.97;9.70;;;-10.10;99.90;;;;;;5018216;28;20206;-83
2022/12/07 09:36:09;;;;;;;15.37;8.83;;;-9.50;99.90;;;;;;5015109;28;20210;-77
2022/12/07 09:38:35;;;;;;;14.93;10.20;;;-10.20;99.90;;;;;;5020768;28;20214;-87
2022/12/07 09:41:06;;;;;;;12.00;9.23;;;-11.10;99.90;;;;;;5016325;28;20539;-79
2022/12/07 09:43:34;;;;;;;9.77;7.90;;;-10.80;99.90;;;;;;5015027;28;20181;-76
2022/12/07 09:46:00;;;;;;;14.27;9.70;;;-10.60;99.90;;;;;;5014983;28;20440;-75
2022/12/07 09:48:36;;;;;;;11.80;9.70;;;-8.90;99.90;;;;;;5016038;28;20859;-79
2022/12/07 09:51:09;;;;;;;16.03;10.70;;;-9.70;99.90;;;;;;5020548;28;20589;-76
2022/12/07 09:53:38;;;;;;;14.47;9.53;;;-11.30;99.90;;;;;;5018880;28;20469;-80
2022/12/07 09:56:05;;;;;;;13.10;8.30;;;-10.80;99.90;;;;;;5031946;28;20449;-88
2022/12/07 09:58:33;;;;;;;12.70;8.83;;;-11.00;99.90;;;;;;5021161;28;20517;-86
2022/12/07 10:01:20;;;;;;;18.70;9.87;;;-12.10;99.90;;;;;;5034190;28;20431;-78
2022/12/07 10:03:52;;;;;;;11.37;7.43;;;-11.50;99.90;;;;;;5022702;28;20536;-81
2022/12/07 10:06:18;;;;;;;13.63;8.37;;;-11.40;99.90;;;;;;5016318;28;20434;-73
2022/12/07 10:08:44;;;;;;;17.03;9.47;;;-10.50;99.90;;;;;;5014696;28;20846;-73
2022/12/07 10:11:11;;;;;;;15.87;9.33;;;-11.20;99.90;;;;;;5014817;28;20180;-74
2022/12/07 10:13:46;;;;;;;12.97;7.93;;;-12.70;99.90;;;;;;5014892;28;20209;-72
2022/12/07 10:16:24;;;;;;;10.33;6.63;;;-12.10;99.90;;;;;;5014584;28;20450;-73
2022/12/07 10:18:50;;;;;;;9.20;7.13;;;0.80;99.90;;;;;;5015334;28;20753;-72
2022/12/07 10:21:23;;;;;;;8.97;7.30;;;3.00;99.90;;;;;;5018594;28;20476;-72
2022/12/07 10:23:58;;;;;;;10.93;8.53;;;3.70;99.90;;;;;;5055069;28;20222;-71
2022/12/07 10:26:33;;;;;;;11.63;7.17;;;-12.40;99.90;;;;;;5050407;28;20426;-73
2022/12/07 10:29:04;;;;;;;12.93;6.67;;;-12.30;99.90;;;;;;5031587;28;20512;-72
2022/12/07 10:31:30;;;;;;;10.57;7.23;;;-10.70;99.90;;;;;;5020014;28;20418;-72
2022/12/07 10:34:00;;;;;;;13.07;8.73;;;-9.10;99.90;;;;;;5024835;28;20469;-75
2022/12/07 10:36:32;;;;;;;10.10;7.93;;;-8.40;99.90;;;;;;5050490;28;20800;-76
2022/12/07 10:39:00;;;;;;;9.20;8.30;;;-8.40;99.90;;;;;;5018842;28;20444;-88
2022/12/07 10:41:26;;;;;;;9.20;7.30;;;-8.20;99.90;;;;;;5019145;28;20761;-72
2022/12/07 10:43:54;;;;;;;13.23;9.70;;;-10.20;99.90;;;;;;5016567;28;20439;-72
2022/12/07 10:46:32;;;;;;;13.00;7.47;;;-10.90;99.90;;;;;;5018763;28;20294;-73
2022/12/07 10:49:22;;;;;;;8.67;7.77;;;-12.50;99.90;;;;;;5018719;28;20437;-74
2022/12/07 10:51:56;;;;;;;16.23;7.90;;;-12.10;99.90;;;;;;5017992;28;20435;-75
2022/12/07 10:54:52;;;;;;;16.27;7.63;;;-11.60;99.90;;;;;;5018593;28;20484;-79
2022/12/07 10:57:45;;;;;;;9.43;6.83;;;-10.60;99.90;;;;;;5031942;28;20438;-81
2022/12/07 11:00:15;;;;;;;11.80;7.03;;;-10.80;99.90;;;;;;5019159;28;20702;-72
2022/12/07 11:03:06;;;;;;;8.83;6.73;;;-10.70;99.90;;;;;;5025138;28;20949;-85
2022/12/07 11:05:58;;;;;;;11.30;7.43;;;-11.90;99.90;;;;;;5034532;28;20438;-75
2022/12/07 11:08:30;;;;;;;14.23;6.97;;;-11.80;99.90;;;;;;5018002;28;20939;-73
2022/12/07 11:11:11;;;;;;;10.37;6.07;;;-12.60;99.90;;;;;;5017739;28;20525;-73
2022/12/07 11:13:48;;;;;;;8.87;5.93;;;-11.70;99.90;;;;;;5016430;28;20500;-73
2022/12/07 11:16:32;;;;;;;6.90;6.30;;;-10.50;99.90;;;;;;5017701;28;20436;-73
2022/12/07 11:19:23;;;;;;;8.13;6.17;;;-11.50;99.90;;;;;;5017516;28;20729;-73
2022/12/07 11:21:56;;;;;;;9.83;6.53;;;-11.10;99.90;;;;;;5049275;28;20446;-72
2022/12/07 11:24:46;;;;;;;13.90;6.63;;;-11.90;99.90;;;;;;5017269;28;20189;-71
2022/12/07 11:27:41;;;;;;;16.53;7.60;;;-10.40;99.90;;;;;;5017380;28;20244;-72
2022/12/07 11:30:13;;;;;;;9.03;5.17;;;-11.90;99.90;;;;;;5015974;28;20194;-73
2022/12/07 11:32:57;;;;;;;6.80;5.97;;;-10.80;99.90;;;;;;5019954;28;20211;-75
2022/12/07 11:35:38;;;;;;;9.10;5.40;;;-10.10;99.90;;;;;;5018641;28;20450;-73
2022/12/07 11:38:32;;;;;;;17.30;5.83;;;-9.20;99.90;;;;;;5029941;28;20196;-72
2022/12/07 11:41:14;;;;;;;10.77;6.27;;;-9.70;99.90;;;;;;5048912;28;20185;-73
2022/12/07 11:43:55;;;;;;;8.17;5.57;;;-8.80;99.90;;;;;;5016494;28;20513;-71
2022/12/07 11:46:27;;;;;;;6.57;5.20;;;-8.20;99.90;;;;;;5016433;28;20848;-72
2022/12/07 11:49:28;;;;;;;10.27;6.03;;;-6.10;99.90;;;;;;5017334;28;20537;-72
2022/12/07 11:51:59;;;;;;;9.87;6.37;;;-7.40;99.90;;;;;;5019963;28;20526;-72
2022/12/07 11:54:34;;;;;;;12.20;6.00;;;-6.10;99.90;;;;;;5016114;28;20475;-73
2022/12/07 11:57:09;;;;;;;7.33;4.87;;;-6.50;99.90;;;;;;5016787;28;20425;-73
2022/12/07 11:59:45;;;;;;;7.73;6.03;;;-7.40;99.90;;;;;;5015246;28;20434;-73
2022/12/07 12:02:18;;;;;;;8.80;5.03;;;-6.70;99.90;;;;;;5020684;28;20434;-72
2022/12/07 12:04:58;;;;;;;7.73;4.13;;;-6.40;99.90;;;;;;5022203;28;20482;-78
2022/12/07 12:07:26;;;;;;;9.40;4.13;;;-5.30;99.90;;;;;;5019580;28;20897;-72
2022/12/07 12:10:15;;;;;;;8.53;4.50;;;-6.30;99.90;;;;;;5023502;28;20449;-71
2022/12/07 12:13:12;;;;;;;5.53;4.30;;;-6.30;99.90;;;;;;5016175;28;20467;-73
2022/12/07 12:15:57;;;;;;;8.63;4.93;;;-6.70;99.90;;;;;;5017565;28;20451;-71
2022/12/07 12:18:38;;;;;;;4.87;2.97;;;-9.30;99.90;;;;;;5018749;28;20520;-72
2022/12/07 12:21:08;;;;;;;3.97;2.60;;;-10.20;99.90;;;;;;5020274;28;20442;-71
2022/12/07 12:24:06;;;;;;;13.63;4.53;;;-9.70;99.90;;;;;;5016208;28;20431;-73
2022/12/07 12:26:35;;;;;;;5.93;2.93;;;-9.40;99.90;;;;;;5014083;28;20465;-73
2022/12/07 12:29:19;;;;;;;4.43;3.57;;;-11.00;99.90;;;;;;5017592;28;20195;-73
2022/12/07 12:32:04;;;;;;;3.00;2.13;;;-9.90;99.90;;;;;;5016040;28;20181;-72
2022/12/07 12:34:37;;;;;;;9.60;3.07;;;-10.00;99.90;;;;;;5028091;28;20426;-72
2022/12/07 12:37:32;;;;;;;5.00;2.47;;;-9.80;99.90;;;;;;5019955;28;20437;-73
2022/12/07 12:40:16;;;;;;;12.50;3.00;;;-8.20;99.90;;;;;;5015581;28;20186;-73
2022/12/07 12:42:50;;;;;;;8.73;3.27;;;-8.40;99.90;;;;;;5015635;28;21085;-73
2022/12/07 12:45:29;;;;;;;2.90;2.23;;;-7.00;99.90;;;;;;5028341;28;20180;-74
2022/12/07 12:47:55;;;;;;;4.47;1.90;;;-6.80;99.90;;;;;;5015796;28;20905;-73
2022/12/07 12:50:28;;;;;;;4.10;1.73;;;-6.30;99.90;;;;;;5015541;28;20192;-74
2022/12/07 12:53:22;;;;;;;2.67;1.63;;;-6.40;99.90;;;;;;5014912;28;20565;-75
2022/12/07 12:56:23;;;;;;;3.37;1.47;;;-7.10;99.90;;;;;;5014977;28;20219;-72
2022/12/07 12:59:09;;;;;;;8.53;2.73;;;-7.60;99.90;;;;;;5015676;28;20426;-75